Time;durP1;ratioP1;P1;durP2;ratioP2;P2;SDS_P1;SDS_P2;PMS_P1;PMS_P2;Temp;Humidity;BMP_temperature;BMP_pressure;BME280_temperature;BME280_humidity;BME280_pressure;Samples;Min_cycle;Max_cycle;Signal;HPM_P1;HPM_P2
2023/10/22 00:00:08;;;;;;;3.25;0.45;;;;;;;12.83;97.11;99554.97;1024984;28;20306;-92
2023/10/22 00:00:43;;;;;;;3.42;0.47;;;;;;;12.89;97.02;99559.31;1028954;28;20352;-91
2023/10/22 00:01:15;;;;;;;2.30;0.60;;;;;;;12.89;97.20;99559.31;1030153;28;20739;-90
2023/10/22 00:01:46;;;;;;;2.35;0.40;;;;;;;12.84;96.66;99559.25;1022769;29;20918;-91
2023/10/22 00:02:18;;;;;;;2.42;0.43;;;;;;;12.90;96.93;99550.22;1028683;28;20352;-92
2023/10/22 00:02:50;;;;;;;4.93;1.80;;;;;;;12.84;97.76;99561.94;1036389;28;20814;-93
2023/10/22 00:03:21;;;;;;;1.10;0.50;;;;;;;12.89;97.98;99557.44;1032529;28;20830;-92
2023/10/22 00:03:53;;;;;;;5.97;0.52;;;;;;;12.90;97.64;99560.91;1039065;28;20760;-93
2023/10/22 00:04:25;;;;;;;2.13;0.70;;;;;;;12.85;97.38;99558.19;1035781;28;20400;-90
2023/10/22 00:04:57;;;;;;;5.95;0.57;;;;;;;12.86;97.36;99549.91;1029335;28;20306;-93
2023/10/22 00:05:28;;;;;;;1.67;0.35;;;;;;;12.88;97.94;99555.03;1037255;28;20305;-93
2023/10/22 00:06:00;;;;;;;2.78;1.00;;;;;;;12.81;98.25;99557.91;1034839;28;20297;-90
2023/10/22 00:06:32;;;;;;;3.88;0.50;;;;;;;12.84;98.42;99564.59;1032665;28;20310;-93
2023/10/22 00:07:03;;;;;;;5.22;0.57;;;;;;;12.82;98.19;99561.41;1030977;28;20294;-93
2023/10/22 00:07:35;;;;;;;6.72;0.47;;;;;;;12.86;98.74;99562.47;1026748;28;20302;-92
2023/10/22 00:08:07;;;;;;;2.55;1.15;;;;;;;12.85;98.68;99558.19;1034623;28;20723;-92
2023/10/22 00:08:39;;;;;;;0.50;0.38;;;;;;;12.85;98.54;99560.88;1036550;28;20299;-92
2023/10/22 00:09:10;;;;;;;4.63;0.75;;;;;;;12.90;98.64;99556.38;1030581;28;20305;-93
2023/10/22 00:09:42;;;;;;;2.17;0.30;;;;;;;12.83;98.33;99560.31;1034557;28;20332;-93
2023/10/22 00:10:14;;;;;;;5.38;0.38;;;;;;;12.95;97.75;99563.59;1038682;28;20308;-92
2023/10/22 00:10:45;;;;;;;2.65;0.65;;;;;;;12.94;97.43;99556.63;1026928;29;20314;-92
2023/10/22 00:11:17;;;;;;;0.82;0.50;;;;;;;12.90;97.40;99561.72;1032942;28;20391;-92
2023/10/22 00:11:49;;;;;;;1.02;0.35;;;;;;;12.91;97.75;99552.63;1038450;28;20303;-92
2023/10/22 00:12:20;;;;;;;3.40;1.88;;;;;;;12.87;98.16;99562.22;1032289;28;20306;-92
2023/10/22 00:12:52;;;;;;;1.13;0.30;;;;;;;12.89;98.42;99564.66;1037428;28;20355;-92
2023/10/22 00:13:23;;;;;;;1.52;0.82;;;;;;;12.90;97.69;99566.25;1036009;28;20315;-92
2023/10/22 00:13:55;;;;;;;4.43;0.47;;;;;;;12.91;97.17;99567.84;1033009;28;20305;-93
2023/10/22 00:14:27;;;;;;;0.45;0.30;;;;;;;12.91;97.60;99565.19;1038091;28;20313;-92
2023/10/22 00:14:58;;;;;;;1.85;0.60;;;;;;;12.88;97.64;99568.38;1025244;29;20317;-92
2023/10/22 00:15:30;;;;;;;2.63;0.20;;;;;;;12.88;97.74;99557.69;1025459;29;20306;-93
2023/10/22 00:16:02;;;;;;;2.13;0.73;;;;;;;12.87;97.24;99561.41;1029125;28;20298;-92
2023/10/22 00:16:34;;;;;;;1.35;0.30;;;;;;;12.94;96.90;99553.97;1032966;28;20305;-92
2023/10/22 00:17:05;;;;;;;5.55;0.70;;;;;;;12.99;97.48;99562.00;1028583;28;20298;-92
2023/10/22 00:17:49;;;;;;;2.38;0.43;;;;;;;12.94;97.84;99562.00;1039498;28;20340;-93
2023/10/22 00:18:21;;;;;;;0.50;0.50;;;;;;;12.98;98.09;99560.38;1036831;28;20305;-92
2023/10/22 00:18:53;;;;;;;1.13;0.50;;;;;;;12.87;98.30;99561.41;1028085;28;20389;-92
2023/10/22 00:19:25;;;;;;;7.78;0.90;;;;;;;12.92;98.72;99554.22;1034029;28;20309;-92
2023/10/22 00:19:56;;;;;;;3.83;0.75;;;;;;;12.92;98.14;99558.78;1037436;28;20305;-92
2023/10/22 00:20:28;;;;;;;2.65;0.40;;;;;;;12.93;98.31;99565.72;1028815;28;20298;-92
2023/10/22 00:20:59;;;;;;;1.52;0.50;;;;;;;12.92;98.53;99553.44;1037994;28;20296;-91
2023/10/22 00:21:31;;;;;;;1.17;0.68;;;;;;;12.96;98.18;99559.84;1027070;28;20306;-92
2023/10/22 00:22:03;;;;;;;2.70;1.48;;;;;;;12.99;97.66;99562.00;1024693;29;20299;-92
2023/10/22 00:22:34;;;;;;;0.90;0.43;;;;;;;12.96;98.25;99565.19;1034827;28;20799;-92
2023/10/22 00:23:06;;;;;;;3.40;0.38;;;;;;;12.98;98.50;99555.84;1033179;28;20299;-93
2023/10/22 00:23:38;;;;;;;3.10;1.45;;;;;;;12.98;98.22;99552.38;1024148;29;20470;-92
2023/10/22 00:24:09;;;;;;;2.55;0.30;;;;;;;12.91;99.17;99547.28;1040295;28;20323;-94
2023/10/22 00:24:41;;;;;;;1.38;0.52;;;;;;;12.95;98.11;99550.22;1036227;28;20297;-92
2023/10/22 00:25:13;;;;;;;5.25;0.60;;;;;;;12.96;97.74;99570.53;1032075;28;20340;-92
2023/10/22 00:25:45;;;;;;;2.83;0.55;;;;;;;13.04;98.10;99556.66;1031769;28;20664;-92
2023/10/22 00:26:17;;;;;;;2.47;0.95;;;;;;;12.99;98.38;99564.66;1031907;28;20464;-92
2023/10/22 00:26:50;;;;;;;3.63;1.20;;;;;;;12.99;98.08;99559.31;1033699;28;20351;-91
2023/10/22 00:27:22;;;;;;;1.23;0.32;;;;;;;13.06;98.20;99559.88;1037983;28;20327;-92
2023/10/22 00:27:55;;;;;;;7.22;2.58;;;;;;;13.05;98.10;99558.25;1030404;28;20302;-92
2023/10/22 00:28:26;;;;;;;0.60;0.55;;;;;;;13.03;98.28;99570.28;1036395;28;20308;-92
2023/10/22 00:28:58;;;;;;;0.80;0.30;;;;;;;13.03;98.32;99560.41;1036109;28;20320;-92
2023/10/22 00:29:31;;;;;;;7.72;0.50;;;;;;;12.98;98.66;99555.84;1036467;28;20305;-91
2023/10/22 00:30:03;;;;;;;1.25;0.32;;;;;;;12.94;99.18;99557.44;1030005;28;20682;-91
2023/10/22 00:30:36;;;;;;;0.50;0.25;;;;;;;12.98;99.03;99555.84;1028314;28;20298;-93
2023/10/22 00:31:08;;;;;;;4.20;0.57;;;;;;;12.99;99.39;99557.44;1023967;28;20307;-93
2023/10/22 00:31:39;;;;;;;2.80;0.90;;;;;;;12.94;99.19;99564.66;1030088;28;20970;-91
2023/10/22 00:32:11;;;;;;;1.15;0.38;;;;;;;13.04;99.57;99561.19;1033712;28;20787;-92
2023/10/22 00:32:42;;;;;;;1.42;0.30;;;;;;;12.98;100.00;99568.41;1032004;28;20301;-92
2023/10/22 00:33:15;;;;;;;1.05;1.02;;;;;;;13.04;99.06;99562.00;1033748;28;20905;-92
2023/10/22 00:33:46;;;;;;;3.17;0.50;;;;;;;12.93;99.83;99561.19;1036304;28;20297;-92
2023/10/22 00:34:18;;;;;;;2.67;0.40;;;;;;;12.92;100.00;99570.25;1036102;28;20323;-92
2023/10/22 00:34:50;;;;;;;0.77;0.40;;;;;;;12.92;100.00;99564.13;1035627;28;20818;-92
2023/10/22 00:35:22;;;;;;;3.08;0.70;;;;;;;12.90;100.00;99558.25;1040212;28;20300;-92
2023/10/22 00:36:01;;;;;;;2.75;0.55;;;;;;;12.92;100.00;99569.47;1035685;28;20387;-93
2023/10/22 00:36:33;;;;;;;3.05;1.15;;;;;;;12.96;100.00;99571.34;1040241;28;20304;-92
2023/10/22 00:37:04;;;;;;;2.22;0.38;;;;;;;12.93;100.00;99571.06;1034090;28;20772;-92
2023/10/22 00:37:36;;;;;;;0.38;0.17;;;;;;;12.92;100.00;99575.63;1029809;28;20298;-92
2023/10/22 00:38:08;;;;;;;3.05;0.45;;;;;;;12.99;100.00;99576.16;1027772;28;20305;-92
2023/10/22 00:38:40;;;;;;;1.17;0.55;;;;;;;12.90;100.00;99571.59;1037847;28;20312;-92
2023/10/22 00:39:12;;;;;;;0.63;0.35;;;;;;;12.91;100.00;99574.00;1036173;28;20393;-92
2023/10/22 00:39:43;;;;;;;1.45;0.40;;;;;;;12.87;100.00;99577.44;1027663;28;20708;-91
2023/10/22 00:40:15;;;;;;;1.10;0.40;;;;;;;12.89;100.00;99575.34;1031661;28;20297;-91
2023/10/22 00:40:47;;;;;;;1.95;0.40;;;;;;;12.82;100.00;99586.25;1031873;28;20308;-92
2023/10/22 00:41:18;;;;;;;2.45;0.50;;;;;;;12.83;100.00;99587.84;1031771;28;20650;-92
2023/10/22 00:41:50;;;;;;;1.23;0.47;;;;;;;12.80;100.00;99583.03;1031853;28;20301;-92
2023/10/22 00:42:22;;;;;;;1.45;0.40;;;;;;;12.83;100.00;99587.84;1027962;28;20784;-92
2023/10/22 00:42:55;;;;;;;0.65;0.57;;;;;;;12.78;100.00;99593.19;1023613;28;20727;-92
2023/10/22 00:43:26;;;;;;;1.00;0.43;;;;;;;12.81;100.00;99591.84;1028021;28;20305;-93
2023/10/22 00:43:58;;;;;;;1.48;0.40;;;;;;;12.78;100.00;99589.72;1027820;28;20461;-92
2023/10/22 00:44:30;;;;;;;1.42;0.43;;;;;;;12.81;100.00;99594.53;1030869;28;20305;-92
2023/10/22 00:45:02;;;;;;;2.25;0.60;;;;;;;12.79;100.00;99585.97;1031928;28;20762;-91
2023/10/22 00:45:36;;;;;;;1.27;0.82;;;;;;;12.77;100.00;99582.75;1036171;28;20355;-92
2023/10/22 00:46:18;;;;;;;3.63;0.43;;;;;;;12.81;100.00;99589.19;1030112;28;20843;-92
2023/10/22 00:46:50;;;;;;;1.52;0.82;;;;;;;12.80;100.00;99584.91;1030045;28;20298;-92
2023/10/22 00:47:22;;;;;;;2.00;1.00;;;;;;;12.84;100.00;99589.47;1028040;28;20816;-93
2023/10/22 00:47:54;;;;;;;0.50;0.30;;;;;;;12.85;100.00;99574.22;1023954;29;20314;-93
2023/10/22 00:48:26;;;;;;;2.65;0.43;;;;;;;12.75;100.00;99591.03;1028235;28;20298;-93
2023/10/22 00:48:58;;;;;;;3.83;0.93;;;;;;;12.72;100.00;99588.09;1028128;28;20310;-92
2023/10/22 00:49:30;;;;;;;1.33;0.40;;;;;;;12.71;100.00;99584.63;1027837;28;20302;-93
2023/10/22 00:50:03;;;;;;;6.93;0.55;;;;;;;12.72;100.00;99596.91;1036106;28;20305;-93
2023/10/22 00:50:34;;;;;;;3.50;0.77;;;;;;;12.74;100.00;99583.28;1030077;28;20294;-93
2023/10/22 00:51:06;;;;;;;1.20;0.40;;;;;;;12.68;100.00;99596.63;1023944;29;20307;-92
2023/10/22 00:51:38;;;;;;;1.63;0.50;;;;;;;12.66;100.00;99592.59;1032235;28;20301;-92
2023/10/22 00:52:09;;;;;;;2.67;1.15;;;;;;;12.75;100.00;99595.56;1035645;28;20301;-94
2023/10/22 00:52:41;;;;;;;4.82;0.75;;;;;;;12.72;100.00;99591.56;1024363;29;20303;-92
2023/10/22 00:53:16;;;;;;;3.85;0.50;;;;;;;12.78;100.00;99589.72;1027642;28;20392;-92
2023/10/22 00:53:48;;;;;;;1.45;0.28;;;;;;;12.75;100.00;99595.56;1027962;28;20301;-92
2023/10/22 00:54:20;;;;;;;1.60;0.47;;;;;;;12.77;100.00;99590.78;1028124;28;20294;-92
2023/10/22 00:54:52;;;;;;;1.80;0.50;;;;;;;12.74;100.00;99594.78;1031906;28;20826;-93
2023/10/22 00:55:24;;;;;;;1.90;0.40;;;;;;;12.78;100.00;99593.19;1031873;28;20396;-92
2023/10/22 00:55:56;;;;;;;2.65;0.40;;;;;;;12.72;100.00;99599.56;1031713;28;20305;-92
2023/10/22 00:56:27;;;;;;;1.73;0.40;;;;;;;12.72;100.00;99601.44;1027913;28;20325;-92
2023/10/22 00:56:59;;;;;;;0.70;0.30;;;;;;;12.72;100.00;99594.22;1024091;29;20796;-92
2023/10/22 00:57:32;;;;;;;3.30;0.50;;;;;;;12.79;100.00;99588.66;1024083;29;20302;-93
2023/10/22 00:58:04;;;;;;;1.75;0.20;;;;;;;12.74;100.00;99596.63;1023974;29;20322;-92
2023/10/22 00:58:36;;;;;;;0.90;0.32;;;;;;;12.71;100.00;99597.16;1024032;28;20389;-92
2023/10/22 00:59:11;;;;;;;2.13;0.90;;;;;;;12.65;100.00;99602.50;1032006;28;20408;-92
2023/10/22 00:59:43;;;;;;;1.45;0.52;;;;;;;12.65;100.00;99602.50;1027431;28;20448;-93
2023/10/22 01:00:15;;;;;;;3.30;0.52;;;;;;;12.69;100.00;99602.78;1029847;28;20387;-92
2023/10/22 01:00:47;;;;;;;0.82;0.30;;;;;;;12.68;100.00;99601.97;1031856;28;20305;-92
2023/10/22 01:01:19;;;;;;;4.45;0.47;;;;;;;12.69;100.00;99606.25;1027896;28;20345;-93
2023/10/22 01:01:51;;;;;;;4.57;0.40;;;;;;;12.72;100.00;99590.75;1023823;28;20303;-92
2023/10/22 01:02:23;;;;;;;2.15;0.93;;;;;;;12.67;100.00;99600.38;1023943;29;20696;-92
2023/10/22 01:02:55;;;;;;;1.17;0.50;;;;;;;12.68;100.00;99593.94;1028138;28;20358;-93
2023/10/22 01:03:27;;;;;;;0.25;0.22;;;;;;;12.73;100.00;99592.38;1027885;28;20302;-92
2023/10/22 01:03:59;;;;;;;4.50;0.38;;;;;;;12.69;100.00;99600.91;1032083;28;20317;-93
2023/10/22 01:04:31;;;;;;;2.92;0.45;;;;;;;12.68;100.00;99577.91;1027978;28;20672;-92
2023/10/22 01:05:05;;;;;;;1.17;0.57;;;;;;;12.68;100.00;99591.28;1027786;28;20314;-92
2023/10/22 01:05:37;;;;;;;5.60;0.65;;;;;;;12.65;100.00;99591.81;1031881;28;20356;-94
2023/10/22 01:06:09;;;;;;;1.02;0.30;;;;;;;12.70;100.00;99593.69;1032123;28;20387;-92
2023/10/22 01:06:41;;;;;;;2.92;0.75;;;;;;;12.68;100.00;99593.94;1028260;28;20313;-92
2023/10/22 01:07:12;;;;;;;1.45;0.40;;;;;;;12.71;100.00;99592.63;1027757;28;20300;-92
2023/10/22 01:07:47;;;;;;;1.65;0.30;;;;;;;12.69;100.00;99590.22;1024081;28;20310;-92
2023/10/22 01:08:18;;;;;;;1.27;0.60;;;;;;;12.75;100.00;99585.69;1027909;28;20360;-93
2023/10/22 01:08:50;;;;;;;1.30;0.28;;;;;;;12.72;100.00;99585.41;1028067;28;20642;-92
2023/10/22 01:09:22;;;;;;;2.83;0.50;;;;;;;12.76;100.00;99592.66;1031670;28;20305;-92
2023/10/22 01:09:54;;;;;;;4.03;0.55;;;;;;;12.68;100.00;99591.28;1029023;28;20381;-93
2023/10/22 01:10:25;;;;;;;1.70;1.60;;;;;;;12.70;100.00;99588.34;1029649;28;20306;-92
2023/10/22 01:11:07;;;;;;;1.65;0.40;;;;;;;12.74;100.00;99591.31;1029396;28;20672;-93
2023/10/22 01:12:05;;;;;;;2.92;0.45;;;;;;;12.76;100.00;99581.94;1026651;29;20306;-92
2023/10/22 01:12:39;;;;;;;1.95;0.30;;;;;;;12.77;100.00;99586.22;1025439;29;20846;-92
2023/10/22 01:13:10;;;;;;;1.27;0.50;;;;;;;12.72;100.00;99580.88;1024266;29;20322;-93
2023/10/22 01:13:42;;;;;;;5.60;0.77;;;;;;;12.67;100.00;99595.00;1029402;28;20306;-93
2023/10/22 01:14:13;;;;;;;1.92;0.40;;;;;;;12.69;100.00;99592.88;1034085;28;20305;-92
2023/10/22 01:14:45;;;;;;;3.58;0.98;;;;;;;12.69;100.00;99587.53;1029495;28;20306;-93
2023/10/22 01:15:17;;;;;;;0.85;0.35;;;;;;;12.68;100.00;99593.16;1028903;28;20306;-93
2023/10/22 01:15:48;;;;;;;1.38;0.63;;;;;;;12.63;100.00;99591.25;1024180;29;20302;-92
2023/10/22 01:16:21;;;;;;;1.80;0.35;;;;;;;12.63;100.00;99593.13;1028006;28;20795;-93
2023/10/22 01:16:53;;;;;;;0.93;0.20;;;;;;;12.68;100.00;99601.97;1030124;28;20371;-92
2023/10/22 01:17:24;;;;;;;2.83;0.43;;;;;;;12.69;100.00;99603.56;1028508;28;20306;-93
2023/10/22 01:17:56;;;;;;;0.77;0.63;;;;;;;12.73;100.00;99595.84;1027963;28;20779;-93
2023/10/22 01:18:28;;;;;;;1.63;0.40;;;;;;;12.73;100.00;99587.81;1028974;28;20696;-92
2023/10/22 01:19:00;;;;;;;2.15;0.47;;;;;;;12.66;100.00;99590.75;1024776;29;20295;-92
2023/10/22 01:19:32;;;;;;;0.47;0.20;;;;;;;12.64;100.00;99594.75;1029482;28;20310;-91
2023/10/22 01:20:05;;;;;;;1.52;0.55;;;;;;;12.68;100.00;99598.50;1033393;28;20309;-93
2023/10/22 01:20:37;;;;;;;1.50;0.73;;;;;;;12.74;100.00;99593.97;1022273;29;20352;-92
2023/10/22 01:21:09;;;;;;;2.40;0.82;;;;;;;12.72;100.00;99588.88;1029842;28;20337;-93
2023/10/22 01:21:41;;;;;;;0.30;0.30;;;;;;;12.71;100.00;99597.97;1029914;28;20298;-92
2023/10/22 01:22:13;;;;;;;0.57;0.30;;;;;;;12.67;100.00;99597.69;1029661;28;20378;-92
2023/10/22 01:22:44;;;;;;;1.00;0.40;;;;;;;12.75;100.00;99595.56;1029575;28;20357;-93
2023/10/22 01:23:16;;;;;;;1.42;0.45;;;;;;;12.75;100.00;99592.91;1033505;28;20336;-93
2023/10/22 01:23:48;;;;;;;6.13;0.47;;;;;;;12.71;100.00;99589.94;1029772;28;20301;-93
2023/10/22 01:24:19;;;;;;;1.80;0.43;;;;;;;12.71;100.00;99592.63;1031288;28;20388;-92
2023/10/22 01:24:51;;;;;;;1.13;0.38;;;;;;;12.73;100.00;99593.16;1033570;28;20312;-93
2023/10/22 01:25:23;;;;;;;1.05;0.60;;;;;;;12.73;100.00;99587.03;1028632;28;20388;-93
2023/10/22 01:25:55;;;;;;;3.67;0.22;;;;;;;12.72;100.00;99590.75;1028743;28;20369;-93
2023/10/22 01:26:26;;;;;;;1.10;0.30;;;;;;;12.75;100.00;99595.56;1031966;28;20799;-92
2023/10/22 01:26:59;;;;;;;1.50;0.40;;;;;;;12.67;100.00;99592.34;1025963;29;20360;-93
2023/10/22 01:27:34;;;;;;;1.23;0.32;;;;;;;12.72;100.00;99596.91;1028404;28;20309;-92
2023/10/22 01:28:06;;;;;;;1.70;0.30;;;;;;;12.77;100.00;99593.44;1027944;28;20298;-92
2023/10/22 01:28:38;;;;;;;1.58;0.52;;;;;;;12.75;100.00;99592.91;1029497;28;20308;-93
2023/10/22 01:29:13;;;;;;;2.60;0.30;;;;;;;12.78;100.00;99597.72;1030198;28;20389;-93
2023/10/22 01:29:45;;;;;;;2.58;0.63;;;;;;;12.73;100.00;99603.06;1033706;28;20321;-92
2023/10/22 01:30:17;;;;;;;6.57;0.40;;;;;;;12.76;100.00;99598.00;1033419;28;20352;-92
2023/10/22 01:30:49;;;;;;;1.35;0.43;;;;;;;12.75;100.00;99595.56;1032382;28;20757;-92
2023/10/22 01:31:20;;;;;;;3.25;0.50;;;;;;;12.74;100.00;99604.66;1028892;28;20409;-93
2023/10/22 01:31:52;;;;;;;1.02;0.28;;;;;;;12.77;100.00;99596.13;1024180;29;20310;-92
2023/10/22 01:32:25;;;;;;;2.70;0.32;;;;;;;12.73;100.00;99598.50;1025634;29;20309;-93
2023/10/22 01:32:57;;;;;;;0.55;0.47;;;;;;;12.74;100.00;99599.31;1026128;29;20326;-93
2023/10/22 01:33:28;;;;;;;0.10;0.10;;;;;;;12.67;100.00;99594.22;1026103;28;20315;-93
2023/10/22 01:34:02;;;;;;;5.28;0.95;;;;;;;12.72;100.00;99604.13;1030289;28;20306;-92
2023/10/22 01:34:33;;;;;;;1.25;0.40;;;;;;;12.74;100.00;99593.97;1030368;28;20306;-93
2023/10/22 01:35:06;;;;;;;1.88;0.35;;;;;;;12.74;100.00;99599.31;1026117;28;20298;-93
2023/10/22 01:35:37;;;;;;;3.13;0.65;;;;;;;12.71;100.00;99607.84;1025779;28;20318;-92
2023/10/22 01:36:09;;;;;;;2.80;0.40;;;;;;;12.71;100.00;99600.63;1028348;28;20831;-92
2023/10/22 01:36:42;;;;;;;2.10;0.30;;;;;;;12.78;100.00;99590.50;1034200;28;20305;-93
2023/10/22 01:37:14;;;;;;;3.17;0.95;;;;;;;12.73;100.00;99603.84;1035225;28;20311;-93
2023/10/22 01:37:46;;;;;;;0.30;0.20;;;;;;;12.68;100.00;99596.63;1033829;28;20432;-93
2023/10/22 01:38:18;;;;;;;2.20;0.43;;;;;;;12.73;100.00;99605.72;1038045;28;20300;-93
2023/10/22 01:38:50;;;;;;;0.52;0.30;;;;;;;12.73;100.00;99597.72;1032854;28;20305;-91
2023/10/22 01:39:22;;;;;;;1.48;0.40;;;;;;;12.76;100.00;99606.00;1038058;28;20301;-92
2023/10/22 01:39:54;;;;;;;2.28;0.60;;;;;;;12.80;100.00;99603.59;1037867;28;20304;-93
2023/10/22 01:40:26;;;;;;;1.13;0.52;;;;;;;12.80;100.00;99603.59;1034399;28;20301;-93
2023/10/22 01:40:57;;;;;;;0.73;0.28;;;;;;;12.82;100.00;99590.78;1025063;29;20294;-92
2023/10/22 01:41:29;;;;;;;1.05;0.30;;;;;;;12.74;100.00;99599.31;1026487;28;20302;-92
2023/10/22 01:42:01;;;;;;;1.02;0.20;;;;;;;12.77;100.00;99604.94;1025840;29;20840;-92
2023/10/22 01:42:32;;;;;;;3.28;0.70;;;;;;;12.76;100.00;99610.53;1028247;28;20365;-92
2023/10/22 01:43:05;;;;;;;1.08;0.45;;;;;;;12.75;100.00;99596.38;1030251;28;20302;-93
2023/10/22 01:43:37;;;;;;;5.93;0.65;;;;;;;12.75;100.00;99595.56;1035763;28;20301;-93
2023/10/22 01:44:08;;;;;;;0.68;0.22;;;;;;;12.69;100.00;99603.56;1032236;28;20293;-91
2023/10/22 01:44:40;;;;;;;0.88;0.32;;;;;;;12.68;100.00;99609.19;1034769;28;20305;-92
2023/10/22 01:45:13;;;;;;;1.15;0.43;;;;;;;12.66;100.00;99604.09;1035676;28;20300;-92
2023/10/22 01:45:45;;;;;;;0.98;0.30;;;;;;;12.72;100.00;99612.13;1031761;28;20308;-93
2023/10/22 01:46:17;;;;;;;4.75;1.05;;;;;;;12.74;100.00;99604.66;1038540;28;20300;-92
2023/10/22 01:46:48;;;;;;;1.05;0.40;;;;;;;12.70;100.00;99604.38;1032680;28;20396;-92
2023/10/22 01:47:21;;;;;;;2.60;0.90;;;;;;;12.67;100.00;99600.38;1037658;28;20308;-92
2023/10/22 01:47:53;;;;;;;3.10;0.30;;;;;;;12.74;100.00;99599.31;1029516;28;20327;-93
2023/10/22 01:48:24;;;;;;;0.93;0.47;;;;;;;12.76;100.00;99607.88;1030093;28;20352;-92
2023/10/22 01:48:56;;;;;;;1.35;0.38;;;;;;;12.71;100.00;99607.84;1033884;28;20300;-91
2023/10/22 01:49:28;;;;;;;4.18;0.47;;;;;;;12.62;100.00;99603.00;1033689;28;20321;-92
2023/10/22 01:49:59;;;;;;;1.45;1.00;;;;;;;12.61;100.00;99611.28;1033611;28;20403;-93
2023/10/22 01:50:31;;;;;;;0.93;0.35;;;;;;;12.58;100.00;99609.91;1029249;28;20314;-91
2023/10/22 01:51:03;;;;;;;2.08;0.20;;;;;;;12.66;100.00;99613.97;1033680;28;20293;-93
2023/10/22 01:51:34;;;;;;;6.25;1.02;;;;;;;12.66;100.00;99614.78;1032066;28;20362;-92
2023/10/22 01:52:06;;;;;;;2.75;0.63;;;;;;;12.74;100.00;99607.31;1025144;29;20295;-92
2023/10/22 01:52:37;;;;;;;0.88;0.40;;;;;;;12.73;100.00;99603.84;1032244;28;20303;-92
2023/10/22 01:53:09;;;;;;;0.80;0.30;;;;;;;12.68;100.00;99601.97;1030512;28;20494;-93
2023/10/22 01:53:42;;;;;;;2.20;0.43;;;;;;;12.69;100.00;99608.91;1033937;28;20309;-92
2023/10/22 01:54:13;;;;;;;1.45;0.57;;;;;;;12.66;100.00;99604.09;1029350;28;20322;-92
2023/10/22 01:54:45;;;;;;;5.80;0.50;;;;;;;12.68;100.00;99604.63;1032074;28;20352;-93
2023/10/22 01:55:17;;;;;;;1.25;0.25;;;;;;;12.69;100.00;99608.91;1038006;28;20304;-92
2023/10/22 01:55:49;;;;;;;2.03;0.40;;;;;;;12.72;100.00;99609.47;1034734;28;20481;-92
2023/10/22 01:56:20;;;;;;;0.40;0.35;;;;;;;12.65;100.00;99610.50;1026763;28;20306;-93
2023/10/22 01:56:52;;;;;;;4.03;0.70;;;;;;;12.63;100.00;99619.84;1032014;28;20357;-93
2023/10/22 01:57:24;;;;;;;1.75;0.57;;;;;;;12.61;100.00;99613.97;1042290;28;20296;-93
2023/10/22 01:57:55;;;;;;;1.15;0.38;;;;;;;12.63;100.00;99617.19;1034652;28;20384;-92
2023/10/22 01:58:27;;;;;;;4.03;1.25;;;;;;;12.66;100.00;99606.78;1042338;28;20300;-92
2023/10/22 01:58:59;;;;;;;2.25;0.30;;;;;;;12.67;100.00;99608.38;1036297;28;20301;-92
2023/10/22 01:59:30;;;;;;;1.02;0.35;;;;;;;12.64;100.00;99619.59;1032609;28;20302;-92
2023/10/22 02:00:03;;;;;;;0.80;0.30;;;;;;;12.67;100.00;99611.03;1037466;28;20395;-92
2023/10/22 02:00:44;;;;;;;2.38;0.73;;;;;;;12.66;100.00;99616.66;1041704;28;20300;-92
2023/10/22 02:01:17;;;;;;;4.07;0.93;;;;;;;12.72;100.00;99623.63;1041273;28;20303;-92
2023/10/22 02:01:48;;;;;;;1.48;0.20;;;;;;;12.67;100.00;99624.41;1038059;28;20297;-92
2023/10/22 02:02:21;;;;;;;5.28;0.45;;;;;;;12.67;100.00;99616.41;1035041;28;20297;-93
2023/10/22 02:02:52;;;;;;;0.90;0.30;;;;;;;12.64;100.00;99611.56;1035017;28;20398;-92
2023/10/22 02:03:25;;;;;;;2.33;0.32;;;;;;;12.59;100.00;99619.53;1033947;28;20312;-93
2023/10/22 02:03:57;;;;;;;0.57;0.30;;;;;;;12.57;100.00;99626.19;1032904;28;20369;-92
2023/10/22 02:04:31;;;;;;;2.78;0.50;;;;;;;12.56;100.00;99619.25;1028212;28;20305;-92
2023/10/22 02:05:18;;;;;;;1.95;0.68;;;;;;;12.63;100.00;99626.00;1038505;28;20309;-92
2023/10/22 02:05:49;;;;;;;0.22;0.13;;;;;;;12.60;100.00;99623.84;1038516;28;20300;-93
2023/10/22 02:06:21;;;;;;;1.58;0.40;;;;;;;12.63;100.00;99630.53;1044910;28;20310;-93
2023/10/22 02:06:53;;;;;;;1.33;0.30;;;;;;;12.65;100.00;99623.88;1038015;28;20315;-93
2023/10/22 02:07:25;;;;;;;0.65;0.30;;;;;;;12.60;100.00;99613.16;1037677;28;20466;-92
2023/10/22 02:07:57;;;;;;;1.98;0.40;;;;;;;12.55;100.00;99620.31;1033375;28;20379;-92
2023/10/22 02:08:29;;;;;;;1.52;0.38;;;;;;;12.55;100.00;99623.78;1041211;28;20288;-93
2023/10/22 02:09:00;;;;;;;4.28;0.55;;;;;;;12.60;100.00;99629.19;1036377;28;20667;-93
2023/10/22 02:09:32;;;;;;;1.33;0.60;;;;;;;12.50;100.00;99629.09;1036262;28;20360;-93
2023/10/22 02:10:04;;;;;;;0.45;0.40;;;;;;;12.56;100.00;99622.72;1037106;28;20309;-92
2023/10/22 02:10:36;;;;;;;3.80;0.40;;;;;;;12.53;100.00;99625.91;1032165;28;20328;-93
2023/10/22 02:11:07;;;;;;;5.70;0.77;;;;;;;12.52;100.00;99629.66;1036177;28;20305;-94
2023/10/22 02:11:39;;;;;;;4.20;1.02;;;;;;;12.47;100.00;99640.31;1037200;28;20300;-95
2023/10/22 02:12:13;;;;;;;1.15;0.43;;;;;;;12.50;100.00;99630.97;1028116;28;20453;-93
2023/10/22 02:12:45;;;;;;;0.73;0.73;;;;;;;12.48;100.00;99617.88;1032132;28;20316;-93
2023/10/22 02:13:17;;;;;;;0.57;0.45;;;;;;;12.54;100.00;99626.72;1033155;28;20324;-92
2023/10/22 02:13:49;;;;;;;1.15;0.45;;;;;;;12.55;100.00;99623.78;1032088;28;20317;-94
2023/10/22 02:14:21;;;;;;;2.15;0.50;;;;;;;12.52;100.00;99618.97;1027924;28;20344;-92
2023/10/22 02:14:52;;;;;;;2.75;0.85;;;;;;;12.53;100.00;99628.59;1035993;28;20354;-93
2023/10/22 02:15:27;;;;;;;3.83;0.38;;;;;;;12.57;100.00;99624.34;1040106;28;20300;-93
2023/10/22 02:15:59;;;;;;;1.50;0.40;;;;;;;12.55;100.00;99634.47;1031966;28;20843;-93
2023/10/22 02:16:30;;;;;;;1.00;0.68;;;;;;;12.58;100.00;99627.81;1033163;28;20293;-93
2023/10/22 02:17:03;;;;;;;0.20;0.13;;;;;;;12.55;100.00;99623.78;1033690;28;20309;-93
2023/10/22 02:17:35;;;;;;;0.38;0.30;;;;;;;12.59;100.00;99624.88;1045299;28;20311;-94
2023/10/22 02:18:07;;;;;;;0.20;0.20;;;;;;;12.64;100.00;99622.25;1038940;28;20312;-93
2023/10/22 02:18:39;;;;;;;1.08;0.40;;;;;;;12.56;100.00;99628.06;1037385;28;20392;-92
2023/10/22 02:19:11;;;;;;;4.03;0.95;;;;;;;12.57;100.00;99621.66;1037374;28;20305;-93
2023/10/22 02:19:43;;;;;;;4.85;0.80;;;;;;;12.61;100.00;99633.47;1037763;28;20308;-93
2023/10/22 02:20:14;;;;;;;1.48;0.50;;;;;;;12.56;100.00;99624.59;1032961;28;20792;-93
2023/10/22 02:21:00;;;;;;;2.28;0.82;;;;;;;12.54;100.00;99626.72;1031054;28;20321;-93
2023/10/22 02:21:31;;;;;;;2.45;0.52;;;;;;;12.58;100.00;99625.94;1029511;28;20341;-94
2023/10/22 02:22:04;;;;;;;1.17;0.50;;;;;;;12.61;100.00;99632.66;1033396;28;20309;-92
2023/10/22 02:22:38;;;;;;;2.38;0.40;;;;;;;12.63;100.00;99639.34;1040303;28;20315;-93
2023/10/22 02:23:10;;;;;;;4.03;0.45;;;;;;;12.63;100.00;99631.34;1037968;28;20376;-93
2023/10/22 02:23:42;;;;;;;1.27;0.20;;;;;;;12.59;100.00;99635.56;1038053;28;20296;-93
2023/10/22 02:24:13;;;;;;;4.15;0.30;;;;;;;12.63;100.00;99638.53;1041321;28;20320;-93
2023/10/22 02:24:45;;;;;;;1.27;0.95;;;;;;;12.58;100.00;99633.94;1032306;28;20293;-92
2023/10/22 02:25:17;;;;;;;0.20;0.20;;;;;;;12.53;100.00;99643.81;1032648;28;20305;-92
2023/10/22 02:25:49;;;;;;;1.27;0.40;;;;;;;12.54;100.00;99637.41;1032644;28;20297;-93
2023/10/22 02:26:21;;;;;;;1.75;0.85;;;;;;;12.60;100.00;99637.19;1030795;28;20412;-93
2023/10/22 02:26:52;;;;;;;3.33;0.60;;;;;;;12.58;100.00;99633.94;1034459;28;20305;-93
2023/10/22 02:27:24;;;;;;;1.88;0.85;;;;;;;12.64;100.00;99629.47;1030403;28;20332;-93
2023/10/22 02:27:56;;;;;;;0.30;0.22;;;;;;;12.63;100.00;99636.69;1032658;28;20309;-93
2023/10/22 02:28:27;;;;;;;1.40;0.60;;;;;;;12.67;100.00;99644.97;1034530;28;20356;-93
2023/10/22 02:28:59;;;;;;;3.38;0.50;;;;;;;12.64;100.00;99638.28;1034905;28;20305;-94
2023/10/22 02:29:31;;;;;;;0.65;0.30;;;;;;;12.61;100.00;99640.69;1037521;28;20312;-93
2023/10/22 02:30:03;;;;;;;1.85;0.60;;;;;;;12.67;100.00;99636.97;1037757;28;20303;-93
2023/10/22 02:30:35;;;;;;;1.13;0.45;;;;;;;12.66;100.00;99638.03;1033442;28;20333;-95